KKB weather

Public forecast

Using degrees Fahrenheit for public forecast. Weather courtesy of forecast.io.

Closest aviation weather report (METAR) to Kitoi Bay Seaplane Base

Closest report is Kodiak Airport, 26.8 nm (49.6 km) S. Retrieved 2020/08/09 13:22 UTC (27 minutes ago):

PADQ 091322Z 30008KT 10SM SCT021 SCT037 12/09 A2975

Closest aviation forecast (TAF) to Kitoi Bay Seaplane Base

Closest forecast is Kodiak Airport, 26.8 nm (49.6 km) S. Retrieved 2020/08/09 12:39 UTC (1 hour ago):

TAF PADQ 091135Z 0912/1012 33010KT P6SM SCT020 OVC050 TEMPO 0912/0915 -RA BKN020 FM091500 30015G22KT P6SM FEW040 SCT080